createdAt,value
2023-02-28T00:00:37.993Z,2.97
2023-02-28T00:03:04.973Z,4.40
2023-02-28T00:05:31.819Z,3.03
2023-02-28T00:07:58.470Z,3.60
2023-02-28T00:10:28.157Z,4.83
2023-02-28T00:12:59.840Z,6.17
2023-02-28T00:15:27.340Z,5.87
2023-02-28T00:17:54.254Z,7.10
2023-02-28T00:20:21.615Z,5.47
2023-02-28T00:22:50.899Z,5.47
2023-02-28T00:25:20.702Z,7.93
2023-02-28T00:27:48.047Z,5.03
2023-02-28T00:30:24.898Z,6.70
2023-02-28T00:32:51.906Z,6.67
2023-02-28T00:35:18.938Z,7.37
2023-02-28T00:37:45.622Z,8.37
2023-02-28T00:40:13.079Z,10.00
2023-02-28T00:42:40.900Z,8.80
2023-02-28T00:45:09.395Z,7.10
2023-02-28T00:47:38.620Z,5.67
2023-02-28T00:50:06.765Z,16.97
2023-02-28T00:52:33.408Z,7.23
2023-02-28T00:55:00.078Z,4.73
2023-02-28T00:57:27.397Z,6.57
2023-02-28T00:59:55.326Z,4.70
2023-02-28T01:02:23.241Z,7.10
2023-02-28T01:04:50.364Z,5.23
2023-02-28T01:07:17.071Z,4.20
2023-02-28T01:09:43.809Z,4.27
2023-02-28T01:12:10.566Z,4.87
2023-02-28T01:14:37.550Z,5.53
2023-02-28T01:17:05.472Z,4.80
2023-02-28T01:19:32.421Z,6.00
2023-02-28T01:22:02.140Z,4.30
2023-02-28T01:24:29.351Z,5.57
2023-02-28T01:26:55.978Z,4.70
2023-02-28T01:29:22.688Z,3.93
2023-02-28T01:31:49.343Z,6.57
2023-02-28T01:34:15.940Z,4.73
2023-02-28T01:36:42.574Z,3.70
2023-02-28T01:39:09.300Z,7.70
2023-02-28T01:41:36.210Z,6.60
2023-02-28T01:44:07.528Z,4.40
2023-02-28T01:46:36.418Z,4.17
2023-02-28T01:49:13.395Z,4.63
2023-02-28T01:51:51.649Z,3.93
2023-02-28T01:54:26.894Z,5.43
2023-02-28T01:57:07.086Z,4.80
2023-02-28T01:59:51.959Z,4.13
2023-02-28T02:02:21.471Z,4.60
2023-02-28T02:05:20.264Z,3.53
2023-02-28T02:07:49.473Z,4.93
2023-02-28T02:10:19.708Z,3.47
2023-02-28T02:13:25.148Z,6.33
2023-02-28T02:16:16.194Z,3.17
2023-02-28T02:18:58.456Z,4.07
2023-02-28T02:22:06.922Z,3.30
2023-02-28T02:25:06.211Z,3.53
2023-02-28T02:27:54.753Z,5.43
2023-02-28T02:30:42.000Z,3.77
2023-02-28T02:33:11.735Z,4.93
2023-02-28T02:35:57.463Z,5.03
2023-02-28T02:38:34.089Z,5.00
2023-02-28T02:41:13.454Z,4.57
2023-02-28T02:43:47.388Z,7.70
2023-02-28T02:46:24.478Z,5.67
2023-02-28T02:48:53.922Z,4.23
2023-02-28T02:51:24.012Z,3.60
2023-02-28T02:53:56.404Z,3.73
2023-02-28T02:56:27.580Z,4.23
2023-02-28T02:58:59.285Z,3.30
2023-02-28T03:01:30.249Z,4.93
2023-02-28T03:04:02.034Z,3.20
2023-02-28T03:06:29.067Z,3.57
2023-02-28T03:08:55.727Z,3.50
2023-02-28T03:11:23.662Z,4.47
2023-02-28T03:14:05.157Z,5.80
2023-02-28T03:17:09.851Z,4.07
2023-02-28T03:19:52.720Z,5.30
2023-02-28T03:22:41.275Z,4.40
2023-02-28T03:25:19.512Z,3.60
2023-02-28T03:28:00.818Z,4.43
2023-02-28T03:30:35.757Z,4.23
2023-02-28T03:33:11.022Z,3.57
2023-02-28T03:35:43.263Z,3.57
2023-02-28T03:38:31.204Z,3.67
2023-02-28T03:41:11.284Z,3.53
2023-02-28T03:43:44.028Z,3.57
2023-02-28T03:46:17.062Z,4.23
2023-02-28T03:48:48.954Z,3.87
2023-02-28T03:51:19.137Z,3.27
2023-02-28T03:53:53.891Z,5.10
2023-02-28T03:56:48.799Z,7.13
2023-02-28T03:59:29.625Z,5.47
2023-02-28T04:01:59.249Z,3.40
2023-02-28T04:04:26.286Z,3.73
2023-02-28T04:06:54.176Z,3.90
2023-02-28T04:09:20.883Z,3.87
2023-02-28T04:11:52.884Z,3.33
2023-02-28T04:14:20.067Z,3.87
2023-02-28T04:16:46.804Z,3.33
2023-02-28T04:19:14.419Z,3.70
2023-02-28T04:21:50.024Z,4.53
2023-02-28T04:24:22.637Z,5.60
2023-02-28T04:26:51.790Z,4.23
2023-02-28T04:29:29.894Z,3.90
2023-02-28T04:32:00.883Z,5.20
2023-02-28T04:34:30.056Z,5.13
2023-02-28T04:37:11.839Z,4.10
2023-02-28T04:39:40.437Z,3.60
2023-02-28T04:42:07.452Z,4.03
2023-02-28T04:44:34.160Z,3.17
2023-02-28T04:47:00.986Z,4.83
2023-02-28T04:49:27.764Z,3.83
2023-02-28T04:51:54.482Z,3.83
2023-02-28T04:54:21.203Z,3.27
2023-02-28T04:56:50.680Z,3.63
2023-02-28T04:59:17.587Z,5.83
2023-02-28T05:01:47.660Z,3.67
2023-02-28T05:04:14.781Z,4.27
2023-02-28T05:06:41.541Z,5.13
2023-02-28T05:09:08.120Z,3.63
2023-02-28T05:11:40.020Z,5.13
2023-02-28T05:14:11.303Z,4.03
2023-02-28T05:16:38.027Z,3.80
2023-02-28T05:19:04.948Z,3.47
2023-02-28T05:21:40.908Z,4.57
2023-02-28T05:24:11.028Z,3.70
2023-02-28T05:26:40.634Z,5.03
2023-02-28T05:29:07.578Z,4.10
2023-02-28T05:31:34.614Z,6.97
2023-02-28T05:34:01.259Z,5.10
2023-02-28T05:36:28.254Z,6.37
2023-02-28T05:38:54.866Z,4.63
2023-02-28T05:41:21.550Z,3.53
2023-02-28T05:43:49.430Z,3.87
2023-02-28T05:46:16.362Z,6.10
2023-02-28T05:48:43.870Z,3.93
2023-02-28T05:51:10.676Z,4.60
2023-02-28T05:53:37.450Z,3.43
2023-02-28T05:56:04.879Z,4.33
2023-02-28T05:58:32.362Z,4.53
2023-02-28T06:00:59.545Z,3.87
2023-02-28T06:03:27.161Z,7.27
2023-02-28T06:05:54.467Z,5.20
2023-02-28T06:08:21.059Z,5.30
2023-02-28T06:10:47.833Z,4.17
2023-02-28T06:13:15.285Z,6.07
2023-02-28T06:15:42.392Z,4.07
2023-02-28T06:18:09.181Z,4.60
2023-02-28T06:20:37.101Z,4.03
2023-02-28T06:23:03.862Z,5.07
2023-02-28T06:25:30.778Z,5.47
2023-02-28T06:27:57.892Z,4.57
2023-02-28T06:30:27.606Z,3.70
2023-02-28T06:32:55.403Z,5.00
2023-02-28T06:35:22.382Z,5.77
2023-02-28T06:37:49.139Z,4.27
2023-02-28T06:40:15.968Z,8.27
2023-02-28T06:42:42.932Z,5.03
2023-02-28T06:45:11.535Z,5.97
2023-02-28T06:47:40.000Z,9.37
2023-02-28T06:50:10.499Z,6.57
2023-02-28T06:52:38.369Z,5.37
2023-02-28T06:55:08.775Z,6.60
2023-02-28T06:57:36.905Z,4.13
2023-02-28T07:00:09.257Z,4.53
2023-02-28T07:02:37.386Z,5.53
2023-02-28T07:05:06.007Z,9.87
2023-02-28T07:07:33.341Z,7.03
2023-02-28T07:09:59.921Z,5.50
2023-02-28T07:12:26.562Z,5.63
2023-02-28T07:14:53.228Z,7.57
2023-02-28T07:17:19.999Z,6.07
2023-02-28T07:19:46.546Z,4.93
2023-02-28T07:22:15.586Z,4.43
2023-02-28T07:24:42.578Z,5.53
2023-02-28T07:27:09.269Z,6.50
2023-02-28T07:29:35.872Z,5.50
2023-02-28T07:32:02.546Z,8.43
2023-02-28T07:34:29.224Z,5.73
2023-02-28T07:36:56.284Z,5.00
2023-02-28T07:39:23.025Z,7.53
2023-02-28T07:41:49.625Z,7.17
2023-02-28T07:44:16.460Z,5.93
2023-02-28T07:46:43.235Z,4.33
2023-02-28T07:49:10.299Z,4.93
2023-02-28T07:51:37.030Z,4.67
2023-02-28T07:54:04.093Z,5.97
2023-02-28T07:56:31.330Z,6.77
2023-02-28T07:58:58.158Z,4.77
2023-02-28T08:01:24.961Z,5.00
2023-02-28T08:03:51.778Z,4.53
2023-02-28T08:06:24.969Z,5.17
2023-02-28T08:08:52.048Z,7.20
2023-02-28T08:11:19.349Z,9.10
2023-02-28T08:13:46.485Z,7.40
2023-02-28T08:16:18.404Z,16.27
2023-02-28T08:18:45.362Z,7.70
2023-02-28T08:21:12.223Z,7.73
2023-02-28T08:23:39.705Z,4.63
2023-02-28T08:26:06.404Z,5.73
2023-02-28T08:28:33.827Z,6.13
2023-02-28T08:31:00.914Z,4.93
2023-02-28T08:33:28.692Z,5.70
2023-02-28T08:35:58.210Z,5.67
2023-02-28T08:38:25.329Z,5.47
2023-02-28T08:40:59.206Z,7.13
2023-02-28T08:43:26.122Z,9.63
2023-02-28T08:45:54.109Z,10.53
2023-02-28T08:48:20.889Z,11.27
2023-02-28T08:51:07.758Z,9.73
2023-02-28T08:53:35.668Z,7.87
2023-02-28T08:56:10.101Z,9.93
2023-02-28T08:58:37.405Z,13.37
2023-02-28T09:01:12.993Z,10.97
2023-02-28T09:03:41.875Z,11.47
2023-02-28T09:06:10.735Z,10.10
2023-02-28T09:08:37.885Z,12.77
2023-02-28T09:11:05.311Z,10.13
2023-02-28T09:13:33.276Z,8.40
2023-02-28T09:16:01.333Z,29.77
2023-02-28T09:18:28.467Z,26.40
2023-02-28T09:20:55.493Z,15.27
2023-02-28T09:23:22.962Z,21.87
2023-02-28T09:25:55.086Z,12.60
2023-02-28T09:28:22.872Z,10.43
2023-02-28T09:30:52.232Z,9.33
2023-02-28T09:33:21.818Z,12.07
2023-02-28T09:35:52.549Z,10.63
2023-02-28T09:38:19.159Z,8.87
2023-02-28T09:40:54.638Z,9.73
2023-02-28T09:43:24.678Z,9.30
2023-02-28T09:45:59.643Z,7.03
2023-02-28T09:48:35.890Z,38.93
2023-02-28T09:51:22.716Z,28.77
2023-02-28T09:53:53.366Z,32.43
2023-02-28T09:56:32.256Z,18.03
2023-02-28T09:59:28.127Z,33.53
2023-02-28T10:02:20.119Z,17.33
2023-02-28T10:04:58.535Z,21.73
2023-02-28T10:08:00.064Z,19.40
2023-02-28T10:10:43.507Z,11.67
2023-02-28T10:13:35.199Z,7.47
2023-02-28T10:16:17.592Z,7.17
2023-02-28T10:18:57.629Z,5.73
2023-02-28T10:21:32.649Z,6.50
2023-02-28T10:24:05.398Z,13.90
2023-02-28T10:26:33.903Z,25.97
2023-02-28T10:29:00.827Z,13.73
2023-02-28T10:31:27.806Z,11.33
2023-02-28T10:33:54.532Z,12.63
2023-02-28T10:36:22.593Z,10.80
2023-02-28T10:39:01.119Z,8.73
2023-02-28T10:41:29.566Z,9.07
2023-02-28T10:44:15.149Z,16.37
2023-02-28T10:46:43.398Z,9.80
2023-02-28T10:49:23.861Z,14.23
2023-02-28T10:51:55.307Z,14.47
2023-02-28T10:54:36.398Z,10.10
2023-02-28T10:57:21.019Z,7.67
2023-02-28T10:59:52.793Z,25.77
2023-02-28T11:02:49.257Z,14.53
2023-02-28T11:05:31.001Z,23.70
2023-02-28T11:08:06.253Z,8.10
2023-02-28T11:10:35.782Z,10.17
2023-02-28T11:13:04.537Z,6.73
2023-02-28T11:15:33.992Z,16.03
2023-02-28T11:18:22.414Z,6.60
2023-02-28T11:20:52.115Z,9.17
2023-02-28T11:23:21.188Z,7.60
2023-02-28T11:26:00.550Z,9.63
2023-02-28T11:28:28.998Z,9.13
2023-02-28T11:31:05.078Z,6.57
2023-02-28T11:33:57.346Z,9.50
2023-02-28T11:36:30.186Z,14.13
2023-02-28T11:39:04.160Z,7.43
2023-02-28T11:42:02.972Z,9.03
2023-02-28T11:45:03.918Z,9.87
2023-02-28T11:48:17.067Z,8.23
2023-02-28T11:50:50.764Z,10.37
2023-02-28T11:53:20.065Z,7.83
2023-02-28T11:55:55.260Z,7.47
2023-02-28T11:58:34.093Z,7.83
2023-02-28T12:01:25.860Z,8.70
2023-02-28T12:04:18.363Z,6.57
2023-02-28T12:06:58.731Z,10.23
2023-02-28T12:09:50.827Z,6.87
2023-02-28T12:12:47.588Z,9.00
2023-02-28T12:15:28.802Z,9.80
2023-02-28T12:18:23.319Z,8.83
2023-02-28T12:21:12.420Z,7.13
2023-02-28T12:23:55.911Z,7.77
2023-02-28T12:26:43.190Z,7.47
2023-02-28T12:29:43.431Z,6.50
2023-02-28T12:32:28.225Z,8.70
2023-02-28T12:35:10.710Z,7.03
2023-02-28T12:37:39.606Z,7.40
2023-02-28T12:40:28.079Z,9.80
2023-02-28T12:43:04.416Z,7.73
2023-02-28T12:45:43.233Z,10.37
2023-02-28T12:48:16.077Z,7.77
2023-02-28T12:50:43.707Z,6.43
2023-02-28T12:53:25.090Z,9.20
2023-02-28T12:56:09.467Z,7.70
2023-02-28T12:58:44.219Z,6.10
2023-02-28T13:01:35.530Z,13.47
2023-02-28T13:04:43.042Z,10.17
2023-02-28T13:07:37.696Z,9.07
2023-02-28T13:10:08.449Z,16.20
2023-02-28T13:12:36.744Z,13.43
2023-02-28T13:15:06.077Z,15.03
2023-02-28T13:17:33.409Z,13.33
2023-02-28T13:20:00.805Z,20.53
2023-02-28T13:22:39.301Z,12.83
2023-02-28T13:25:26.167Z,13.73
2023-02-28T13:27:57.984Z,9.70
2023-02-28T13:30:57.217Z,7.50
2023-02-28T13:33:33.927Z,10.10
2023-02-28T13:36:14.553Z,10.97
2023-02-28T13:38:46.282Z,10.27
2023-02-28T13:41:32.220Z,13.77
2023-02-28T13:44:24.229Z,11.03
2023-02-28T13:46:50.819Z,8.60
2023-02-28T13:49:34.780Z,9.13
2023-02-28T13:52:07.079Z,8.87
2023-02-28T13:54:57.324Z,8.07
2023-02-28T13:57:41.352Z,9.03
2023-02-28T14:00:36.219Z,8.33
2023-02-28T14:03:17.870Z,8.10
2023-02-28T14:05:44.709Z,7.53
2023-02-28T14:08:24.023Z,7.40
2023-02-28T14:11:03.193Z,7.73
2023-02-28T14:13:48.257Z,7.97
2023-02-28T14:16:21.176Z,7.20
2023-02-28T14:18:58.648Z,7.90
2023-02-28T14:21:31.382Z,8.00
2023-02-28T14:24:09.776Z,7.57
2023-02-28T14:27:09.247Z,6.87
2023-02-28T14:29:50.929Z,8.13
2023-02-28T14:32:54.652Z,6.20
2023-02-28T14:35:27.195Z,7.67
2023-02-28T14:37:55.049Z,9.13
2023-02-28T14:40:33.775Z,8.40
2023-02-28T14:43:04.225Z,8.60
2023-02-28T14:45:33.317Z,7.97
2023-02-28T14:48:02.046Z,7.40
2023-02-28T14:50:32.957Z,6.90
2023-02-28T14:52:59.980Z,9.93
2023-02-28T14:55:33.330Z,15.63
2023-02-28T14:58:07.410Z,8.83
2023-02-28T15:00:38.392Z,11.00
2023-02-28T15:03:34.498Z,8.43
2023-02-28T15:06:04.512Z,9.50
2023-02-28T15:08:36.044Z,11.73
2023-02-28T15:11:06.369Z,11.83
2023-02-28T15:13:47.185Z,14.47
2023-02-28T15:16:32.987Z,13.83
2023-02-28T15:19:03.308Z,13.00
2023-02-28T15:21:36.775Z,10.50
2023-02-28T15:24:09.239Z,11.23
2023-02-28T15:26:42.034Z,14.37
2023-02-28T15:29:14.650Z,11.27
2023-02-28T15:31:57.040Z,10.30
2023-02-28T15:34:44.288Z,19.03
2023-02-28T15:37:41.980Z,19.17
2023-02-28T15:40:39.481Z,16.27
2023-02-28T15:43:24.735Z,11.93
2023-02-28T15:45:56.241Z,9.90
2023-02-28T15:48:30.654Z,10.93
2023-02-28T15:51:02.958Z,9.53
2023-02-28T15:53:33.636Z,15.70
2023-02-28T15:56:06.203Z,8.10
2023-02-28T15:58:35.850Z,8.67
2023-02-28T16:01:16.898Z,13.23
2023-02-28T16:03:51.045Z,35.47
2023-02-28T16:06:17.604Z,10.50
2023-02-28T16:08:45.726Z,10.73
2023-02-28T16:11:12.576Z,11.87
2023-02-28T16:13:39.281Z,13.57
2023-02-28T16:16:06.175Z,18.73
2023-02-28T16:18:32.785Z,11.30
2023-02-28T16:20:59.450Z,12.07
2023-02-28T16:23:26.085Z,12.93
2023-02-28T16:25:52.947Z,11.77
2023-02-28T16:28:24.937Z,12.73
2023-02-28T16:30:55.059Z,10.80
2023-02-28T16:33:21.762Z,8.77
2023-02-28T16:35:48.396Z,11.00
2023-02-28T16:38:15.006Z,16.40
2023-02-28T16:40:41.771Z,11.43
2023-02-28T16:43:16.403Z,16.40
2023-02-28T16:45:43.511Z,24.60
2023-02-28T16:48:16.058Z,14.20
2023-02-28T16:50:45.433Z,12.33
2023-02-28T16:53:12.167Z,12.60
2023-02-28T16:55:38.857Z,11.07
2023-02-28T16:58:05.942Z,11.43
2023-02-28T17:00:34.153Z,11.63
2023-02-28T17:03:01.103Z,11.77
2023-02-28T17:05:31.716Z,11.27
2023-02-28T17:07:58.445Z,8.43
2023-02-28T17:10:27.163Z,10.33
2023-02-28T17:12:58.440Z,10.70
2023-02-28T17:15:31.895Z,7.53
2023-02-28T17:17:58.842Z,11.43
2023-02-28T17:20:27.302Z,8.00
2023-02-28T17:22:55.234Z,9.33
2023-02-28T17:25:23.113Z,10.80
2023-02-28T17:27:52.212Z,12.13
2023-02-28T17:30:25.130Z,11.50
2023-02-28T17:32:51.935Z,7.80
2023-02-28T17:35:18.991Z,10.57
2023-02-28T17:37:46.228Z,8.80
2023-02-28T17:40:21.915Z,9.83
2023-02-28T17:42:48.710Z,11.70
2023-02-28T17:45:16.257Z,7.77
2023-02-28T17:47:47.158Z,8.20
2023-02-28T17:50:16.251Z,8.40
2023-02-28T17:52:42.839Z,8.57
2023-02-28T17:55:10.413Z,9.00
2023-02-28T17:57:37.179Z,9.03
2023-02-28T18:00:07.619Z,9.53
2023-02-28T18:02:38.514Z,10.20
2023-02-28T18:05:05.714Z,7.70
2023-02-28T18:07:32.575Z,9.93
2023-02-28T18:09:59.139Z,11.70
2023-02-28T18:12:26.272Z,12.37
2023-02-28T18:14:53.201Z,12.37
2023-02-28T18:17:19.878Z,11.27
2023-02-28T18:19:46.487Z,13.13
2023-02-28T18:22:13.136Z,13.60
2023-02-28T18:24:40.968Z,9.97
2023-02-28T18:27:07.768Z,15.07
2023-02-28T18:29:34.592Z,14.97
2023-02-28T18:32:02.377Z,11.47
2023-02-28T18:34:30.595Z,10.83
2023-02-28T18:36:57.744Z,10.90
2023-02-28T18:39:24.632Z,11.47
2023-02-28T18:41:51.365Z,14.73
2023-02-28T18:44:20.334Z,15.87
2023-02-28T18:46:49.051Z,14.73
2023-02-28T18:49:16.325Z,13.03
2023-02-28T18:51:45.174Z,12.87
2023-02-28T18:54:16.512Z,13.57
2023-02-28T18:56:43.664Z,15.60
2023-02-28T18:59:11.310Z,10.33
2023-02-28T19:01:37.997Z,14.07
2023-02-28T19:04:05.053Z,10.67
2023-02-28T19:06:33.033Z,11.77
2023-02-28T19:09:02.414Z,9.53
2023-02-28T19:11:29.625Z,11.30
2023-02-28T19:13:56.802Z,9.93
2023-02-28T19:16:24.003Z,10.20
2023-02-28T19:18:51.230Z,10.30
2023-02-28T19:21:20.245Z,11.57
2023-02-28T19:23:47.028Z,10.93
2023-02-28T19:26:16.475Z,13.83
2023-02-28T19:28:43.554Z,10.57
2023-02-28T19:31:15.917Z,9.70
2023-02-28T19:33:43.357Z,10.43
2023-02-28T19:36:13.997Z,9.77
2023-02-28T19:38:41.925Z,8.93
2023-02-28T19:41:11.448Z,13.53
2023-02-28T19:43:38.621Z,8.97
2023-02-28T19:46:06.375Z,9.77
2023-02-28T19:48:33.181Z,10.03
2023-02-28T19:51:08.940Z,12.40
2023-02-28T19:53:38.004Z,10.77
2023-02-28T19:56:05.265Z,13.17
2023-02-28T19:58:32.740Z,14.77
2023-02-28T20:01:06.173Z,12.43
2023-02-28T20:03:32.860Z,11.07
2023-02-28T20:06:01.836Z,10.27
2023-02-28T20:08:28.851Z,11.67
2023-02-28T20:10:55.541Z,10.87
2023-02-28T20:13:25.855Z,11.07
2023-02-28T20:15:54.604Z,8.97
2023-02-28T20:18:21.314Z,8.60
2023-02-28T20:20:48.019Z,9.67
2023-02-28T20:23:14.615Z,7.43
2023-02-28T20:25:41.339Z,8.07
2023-02-28T20:28:08.133Z,8.47
2023-02-28T20:30:34.940Z,10.37
2023-02-28T20:33:01.816Z,7.80
2023-02-28T20:35:28.506Z,8.33
2023-02-28T20:37:55.224Z,13.47
2023-02-28T20:40:22.045Z,13.77
2023-02-28T20:42:48.717Z,15.10
2023-02-28T20:45:15.333Z,11.80
2023-02-28T20:47:43.604Z,12.23
2023-02-28T20:50:11.291Z,11.97
2023-02-28T20:52:38.085Z,10.77
2023-02-28T20:55:05.525Z,8.97
2023-02-28T20:57:32.284Z,12.53
2023-02-28T20:59:58.860Z,9.27
2023-02-28T21:02:26.521Z,9.87
2023-02-28T21:04:53.450Z,12.13
2023-02-28T21:07:20.147Z,9.13
2023-02-28T21:09:46.780Z,10.70
2023-02-28T21:12:13.420Z,14.90
2023-02-28T21:14:40.118Z,13.00
2023-02-28T21:17:09.024Z,10.43
2023-02-28T21:19:38.802Z,11.20
2023-02-28T21:22:05.513Z,14.70
2023-02-28T21:24:32.509Z,12.20
2023-02-28T21:27:01.068Z,15.80
2023-02-28T21:29:28.046Z,10.73
2023-02-28T21:31:55.016Z,11.87
2023-02-28T21:34:21.854Z,13.03
2023-02-28T21:36:48.638Z,11.27
2023-02-28T21:39:30.198Z,10.27
2023-02-28T21:42:03.781Z,12.17
2023-02-28T21:44:31.729Z,14.37
2023-02-28T21:47:00.996Z,13.07
2023-02-28T21:49:28.123Z,15.33
2023-02-28T21:51:54.828Z,15.40
2023-02-28T21:54:21.652Z,11.17
2023-02-28T21:56:50.664Z,9.97
2023-02-28T21:59:18.011Z,10.57
2023-02-28T22:01:45.933Z,9.97
2023-02-28T22:04:21.342Z,13.70
2023-02-28T22:06:54.079Z,9.87
2023-02-28T22:09:21.343Z,11.10
2023-02-28T22:11:48.242Z,12.27
2023-02-28T22:14:15.327Z,10.00
2023-02-28T22:16:56.634Z,12.37
2023-02-28T22:19:24.235Z,13.70
2023-02-28T22:21:53.589Z,9.80
2023-02-28T22:24:24.030Z,9.73
2023-02-28T22:26:51.723Z,13.50
2023-02-28T22:29:18.697Z,13.30
2023-02-28T22:31:45.493Z,10.03
2023-02-28T22:34:12.994Z,14.00
2023-02-28T22:36:43.285Z,10.70
2023-02-28T22:39:11.040Z,12.20
2023-02-28T22:41:38.336Z,10.83
2023-02-28T22:44:05.880Z,11.87
2023-02-28T22:46:34.013Z,12.23
2023-02-28T22:49:02.840Z,9.10
2023-02-28T22:51:31.106Z,8.63
2023-02-28T22:53:58.562Z,8.70
2023-02-28T22:56:28.158Z,9.03
2023-02-28T22:58:57.736Z,10.13
2023-02-28T23:01:27.367Z,9.60
2023-02-28T23:03:55.108Z,9.93
2023-02-28T23:06:25.001Z,8.30
2023-02-28T23:08:55.092Z,10.00
2023-02-28T23:11:29.144Z,8.17
2023-02-28T23:13:58.999Z,10.53
2023-02-28T23:16:31.166Z,10.50
2023-02-28T23:19:00.469Z,14.57
2023-02-28T23:21:27.980Z,9.60
2023-02-28T23:23:55.205Z,9.80
2023-02-28T23:26:23.301Z,10.20
2023-02-28T23:28:50.107Z,9.50
2023-02-28T23:31:16.903Z,11.30
2023-02-28T23:33:43.737Z,12.67
2023-02-28T23:36:12.707Z,10.17
2023-02-28T23:38:41.190Z,9.37
2023-02-28T23:41:09.926Z,8.07
2023-02-28T23:43:37.102Z,9.27
2023-02-28T23:46:04.780Z,14.00
2023-02-28T23:48:31.877Z,10.43
2023-02-28T23:51:11.504Z,9.80
2023-02-28T23:53:40.697Z,12.53
2023-02-28T23:56:09.582Z,8.27
2023-02-28T23:58:37.066Z,12.70
